Terminal Aerodrome Forecast
Issued by NWS

Home | Current Version | Previous Version | Graphics & Text | Print | Product List | Glossary On
Versions: 1 2 3 4 5 6 7 8 9 10 11 12 13 14 15 16 17 18 19 20 21
821
FTUS43 KOAX 301134
TAFCDR
TAF
KCDR 301134Z 3012/3112 20006KT P6SM SCT120
     FM301800 16008KT P6SM SCT050
     FM302200 13010KT P6SM VCTS SCT060CB BKN100=

USA.gov is the U.S. government's official web portal to all federal, state and local government web resources and services.